Hlavní strana
METAR-TAF:

METAR-TAF

Letiště :

Cerklje ob Krki, Slovinsko

zeměpisná šířka: 45-53-59N, zeměpisná délka: 15-30-55E, výška: 157 m

Aktuální stav počasí

Zpráva byla vytvořena před 18 minutami, v 01:30 UTC
Jihozápadní vítr 1 kt
Teplota 18°C
Vlhkost vzduchu 94%
Tlak 1019 hPa
Viditelnost 10 km a více

METAR: LJCE 190130Z AUTO 22001KT 9999 NCD 18/17 Q1019

Čas: 03:48 (01:48 UTC)

Předpověď počasí

Zpráva byla vytvořena před 2 hodinami a 48 minutami, v 23:00 UTC
Předpověď platná od 19 v 00 UTC do 19 v 09 UTC
vítr z různých směrů 2 kt
Viditelnost 10 km a více
Žádná oblačnost pod 1500 m, nevyskytují se cumulonimby.
Změna
od 19 v 08 UTC do 19 v 09 UTC
Východní vítr 5 kt

TAF: LJCE 182300Z 1900/1909 VRB02KT CAVOK BECMG 1908/1909 08005KT

Stav a předpovědi počasí z více než 4 000 letišť (zprávy METAR a TAF).

Červené a žluté tečky na mapě představují dostupné meteorologické stanice.

Když kurzor umístíte na tečku, zobrazí se název stanice.

Pak kliknutím zobrazíte stav a předpověď počasí.

Chcete-li změnit mapu, kliknutím na zelené tlačítko se znaménkem +mapu přiblížíte, kliknutím na zelené tlačítko se znaménkem – mapu oddálíte a kliknutím na zelené šipky přejdete na sousední mapy.


METAR-TAF: